Time;durP1;ratioP1;P1;durP2;ratioP2;P2;SDS_P1;SDS_P2;PMS_P1;PMS_P2;Temp;Humidity;BMP_temperature;BMP_pressure;BME280_temperature;BME280_humidity;BME280_pressure;Samples;Min_cycle;Max_cycle;Signal;HPM_P1;HPM_P2
2022/08/21 00:01:54;;;;;;;;;;;;;;;;;;4993923;28;19929;-74
2022/08/21 00:04:22;;;;;;;;;;;;;;;;;;4993249;28;19937;-75
2022/08/21 00:06:52;;;;;;;;;;;;;;;;;;4997682;28;20027;-74
2022/08/21 00:09:19;;;;;;;;;;;;;;;;;;5003269;28;19933;-75
2022/08/21 00:11:46;;;;;;;;;;;;;;;;;;4986724;28;20028;-75
2022/08/21 00:14:14;;;;;;;;;;;;;;;;;;4987375;28;19936;-74
2022/08/21 00:16:41;;;;;;;;;;;;;;;;;;4996001;28;19930;-74
2022/08/21 00:19:08;;;;;;;;;;;;;;;;;;4993021;28;19926;-75
2022/08/21 00:21:36;;;;;;;;;;;;;;;;;;4975763;28;20225;-74
2022/08/21 00:24:03;;;;;;;;;;;;;;;;;;4978058;28;19926;-76
2022/08/21 00:26:30;;;;;;;;;;;;;;;;;;4995496;28;19969;-74
2022/08/21 00:28:58;;;;;;;;;;;;;;;;;;4988408;28;21030;-74
2022/08/21 00:31:25;;;;;;;;;;;;;;;;;;4989198;28;19948;-75
2022/08/21 00:33:52;;;;;;;;;;;;;;;;;;4994498;28;19940;-74
2022/08/21 00:36:22;;;;;;;;;;;;;;;;;;4994099;28;19930;-75
2022/08/21 00:38:49;;;;;;;;;;;;;;;;;;4992181;28;19934;-75
2022/08/21 00:41:17;;;;;;;;;;;;;;;;;;4990487;28;19929;-74
2022/08/21 00:44:04;;;;;;;;;;;;;;;;;;4993345;28;19940;-75
2022/08/21 00:46:31;;;;;;;;;;;;;;;;;;4976908;28;20397;-74
2022/08/21 00:48:58;;;;;;;;;;;;;;;;;;4993468;28;20184;-74
2022/08/21 00:51:26;;;;;;;;;;;;;;;;;;4992442;28;20397;-74
2022/08/21 00:53:53;;;;;;;;;;;;;;;;;;4993423;28;20009;-74
2022/08/21 00:56:20;;;;;;;;;;;;;;;;;;4992971;28;19982;-74
2022/08/21 00:58:48;;;;;;;;;;;;;;;;;;4999294;28;20082;-74
2022/08/21 01:01:15;;;;;;;;;;;;;;;;;;4992661;28;20313;-74
2022/08/21 01:03:42;;;;;;;;;;;;;;;;;;4994635;28;19925;-75
2022/08/21 01:06:10;;;;;;;;;;;;;;;;;;4992859;28;20411;-75
2022/08/21 01:08:37;;;;;;;;;;;;;;;;;;4989990;28;20412;-75
2022/08/21 01:11:04;;;;;;;;;;;;;;;;;;4992682;28;19940;-75
2022/08/21 01:13:32;;;;;;;;;;;;;;;;;;4990056;28;19930;-74
2022/08/21 01:15:59;;;;;;;;;;;;;;;;;;4992973;28;19934;-75
2022/08/21 01:18:26;;;;;;;;;;;;;;;;;;4995925;28;19937;-75
2022/08/21 01:20:53;;;;;;;;;;;;;;;;;;4993954;28;20358;-74
2022/08/21 01:23:21;;;;;;;;;;;;;;;;;;4992387;28;19933;-74
2022/08/21 01:25:48;;;;;;;;;;;;;;;;;;4989161;28;19929;-75
2022/08/21 01:28:15;;;;;;;;;;;;;;;;;;4993593;28;20021;-75
2022/08/21 01:30:43;;;;;;;;;;;;;;;;;;4987847;28;20282;-74
2022/08/21 01:33:10;;;;;;;;;;;;;;;;;;4990225;28;19934;-74
2022/08/21 01:35:38;;;;;;;;;;;;;;;;;;4996107;28;19929;-74
2022/08/21 01:38:05;;;;;;;;;;;;;;;;;;4981838;28;20020;-74
2022/08/21 01:40:32;;;;;;;;;;;;;;;;;;4978919;28;19929;-75
2022/08/21 01:43:00;;;;;;;;;;;;;;;;;;4992778;28;19976;-74
2022/08/21 01:45:27;;;;;;;;;;;;;;;;;;4993693;28;19929;-74
2022/08/21 01:47:54;;;;;;;;;;;;;;;;;;5059041;23;19990;-88
2022/08/21 01:50:21;;;;;;;;;;;;;;;;;;5050460;28;19928;-87
2022/08/21 01:52:49;;;;;;;;;;;;;;;;;;5048064;28;20050;-87
2022/08/21 01:55:17;;;;;;;;;;;;;;;;;;5044774;28;19925;-87
2022/08/21 01:57:44;;;;;;;;;;;;;;;;;;5053017;28;19936;-87
2022/08/21 02:00:12;;;;;;;;;;;;;;;;;;5051668;28;19928;-87
2022/08/21 02:02:40;;;;;;;;;;;;;;;;;;5067119;28;20124;-86
2022/08/21 02:05:07;;;;;;;;;;;;;;;;;;5050702;28;19928;-86
2022/08/21 02:07:37;;;;;;;;;;;;;;;;;;5047982;28;19924;-86
2022/08/21 02:10:04;;;;;;;;;;;;;;;;;;5064885;28;19932;-86
2022/08/21 02:12:31;;;;;;;;;;;;;;;;;;5067572;28;19925;-86
2022/08/21 02:14:59;;;;;;;;;;;;;;;;;;5055701;28;20052;-86
2022/08/21 02:17:39;;;;;;;;;;;;;;;;;;5065872;28;20362;-86
2022/08/21 02:20:09;;;;;;;;;;;;;;;;;;5048650;28;19928;-87
2022/08/21 02:22:36;;;;;;;;;;;;;;;;;;5054236;28;19928;-86
2022/08/21 02:25:03;;;;;;;;;;;;;;;;;;5052537;28;19931;-87
2022/08/21 02:27:30;;;;;;;;;;;;;;;;;;5051486;28;19929;-87
2022/08/21 02:29:58;;;;;;;;;;;;;;;;;;5069186;28;19947;-86
2022/08/21 02:32:26;;;;;;;;;;;;;;;;;;5052059;28;19936;-88
2022/08/21 02:34:54;;;;;;;;;;;;;;;;;;5049546;28;19952;-87
2022/08/21 02:37:22;;;;;;;;;;;;;;;;;;5050903;28;20015;-86
2022/08/21 02:39:51;;;;;;;;;;;;;;;;;;5072976;28;19925;-86
2022/08/21 02:42:21;;;;;;;;;;;;;;;;;;5066216;28;19925;-86
2022/08/21 02:44:54;;;;;;;;;;;;;;;;;;5071524;28;19931;-86
2022/08/21 02:47:21;;;;;;;;;;;;;;;;;;5061596;28;19935;-87
2022/08/21 02:49:49;;;;;;;;;;;;;;;;;;5056459;28;19924;-87
2022/08/21 02:52:19;;;;;;;;;;;;;;;;;;5053011;28;19934;-87
2022/08/21 02:54:47;;;;;;;;;;;;;;;;;;5071803;28;19970;-86
2022/08/21 02:57:15;;;;;;;;;;;;;;;;;;5069683;28;20007;-87
2022/08/21 02:59:42;;;;;;;;;;;;;;;;;;5072239;28;19928;-86
2022/08/21 03:02:11;;;;;;;;;;;;;;;;;;5055238;28;19928;-86
2022/08/21 03:04:41;;;;;;;;;;;;;;;;;;5043405;28;19924;-86
2022/08/21 03:07:12;;;;;;;;;;;;;;;;;;5054345;28;20030;-86
2022/08/21 03:09:40;;;;;;;;;;;;;;;;;;5071304;28;19979;-87
2022/08/21 03:12:27;;;;;;;;;;;;;;;;;;5040938;28;19928;-86
2022/08/21 03:14:57;;;;;;;;;;;;;;;;;;5032982;28;19924;-87
2022/08/21 03:17:24;;;;;;;;;;;;;;;;;;5034522;28;19928;-86
2022/08/21 03:19:56;;;;;;;;;;;;;;;;;;5072646;28;20237;-86
2022/08/21 03:22:32;;;;;;;;;;;;;;;;;;5040338;28;19924;-87
2022/08/21 03:24:59;;;;;;;;;;;;;;;;;;5067112;28;19936;-86
2022/08/21 03:27:27;;;;;;;;;;;;;;;;;;5071001;28;19929;-86
2022/08/21 03:29:54;;;;;;;;;;;;;;;;;;5071172;28;20276;-87
2022/08/21 03:32:24;;;;;;;;;;;;;;;;;;5051482;28;19979;-88
2022/08/21 03:34:51;;;;;;;;;;;;;;;;;;5067700;28;19974;-87
2022/08/21 03:37:19;;;;;;;;;;;;;;;;;;5071698;28;19982;-87
2022/08/21 03:39:48;;;;;;;;;;;;;;;;;;5072125;28;19935;-87
2022/08/21 03:42:16;;;;;;;;;;;;;;;;;;5056774;28;19951;-86
2022/08/21 03:44:44;;;;;;;;;;;;;;;;;;5041301;28;20196;-87
2022/08/21 03:47:11;;;;;;;;;;;;;;;;;;5035280;28;20031;-87
2022/08/21 03:49:39;;;;;;;;;;;;;;;;;;5070355;28;19929;-87
2022/08/21 03:52:06;;;;;;;;;;;;;;;;;;5058701;28;19935;-86
2022/08/21 03:54:33;;;;;;;;;;;;;;;;;;5071906;28;20303;-87
2022/08/21 03:57:01;;;;;;;;;;;;;;;;;;5070598;28;20415;-87
2022/08/21 03:59:29;;;;;;;;;;;;;;;;;;5064322;28;20631;-87
2022/08/21 04:01:59;;;;;;;;;;;;;;;;;;5051478;28;19936;-87
2022/08/21 04:04:26;;;;;;;;;;;;;;;;;;5071158;28;19998;-87
2022/08/21 04:06:54;;;;;;;;;;;;;;;;;;5056055;28;19982;-86
2022/08/21 04:09:21;;;;;;;;;;;;;;;;;;5071140;28;19947;-86
2022/08/21 04:11:48;;;;;;;;;;;;;;;;;;5035731;28;19989;-86
2022/08/21 04:14:15;;;;;;;;;;;;;;;;;;5068162;28;19928;-87
2022/08/21 04:16:44;;;;;;;;;;;;;;;;;;5071891;28;19929;-87
2022/08/21 04:19:11;;;;;;;;;;;;;;;;;;5073423;28;19932;-86
2022/08/21 04:21:38;;;;;;;;;;;;;;;;;;5072978;28;20026;-86
2022/08/21 04:24:07;;;;;;;;;;;;;;;;;;5070265;28;19928;-88
2022/08/21 04:26:34;;;;;;;;;;;;;;;;;;5070940;28;19928;-87
2022/08/21 04:29:01;;;;;;;;;;;;;;;;;;5071312;28;19932;-87
2022/08/21 04:31:33;;;;;;;;;;;;;;;;;;5070816;28;20023;-87
2022/08/21 04:34:00;;;;;;;;;;;;;;;;;;5070628;28;19959;-87
2022/08/21 04:36:28;;;;;;;;;;;;;;;;;;5069679;28;19928;-86
2022/08/21 04:38:55;;;;;;;;;;;;;;;;;;5070592;28;19932;-87
2022/08/21 04:41:22;;;;;;;;;;;;;;;;;;5067963;28;19936;-87
2022/08/21 04:43:57;;;;;;;;;;;;;;;;;;5067666;28;19928;-88
2022/08/21 04:46:29;;;;;;;;;;;;;;;;;;5064440;28;20011;-86
2022/08/21 04:48:58;;;;;;;;;;;;;;;;;;5053000;28;19971;-87
2022/08/21 04:51:26;;;;;;;;;;;;;;;;;;5069408;28;20030;-86
2022/08/21 04:53:53;;;;;;;;;;;;;;;;;;5055720;28;19973;-87
2022/08/21 04:56:20;;;;;;;;;;;;;;;;;;5070727;28;20277;-87
2022/08/21 04:58:49;;;;;;;;;;;;;;;;;;5070063;28;19924;-86
2022/08/21 05:01:19;;;;;;;;;;;;;;;;;;5067921;28;19936;-86
2022/08/21 05:03:46;;;;;;;;;;;;;;;;;;5048841;28;20238;-86
2022/08/21 05:06:13;;;;;;;;;;;;;;;;;;5069165;28;19929;-86
2022/08/21 05:08:40;;;;;;;;;;;;;;;;;;5051911;28;20349;-86
2022/08/21 05:11:08;;;;;;;;;;;;;;;;;;5052295;28;19951;-86
2022/08/21 05:13:35;;;;;;;;;;;;;;;;;;5067050;28;19925;-87
2022/08/21 05:16:02;;;;;;;;;;;;;;;;;;5053595;28;20311;-86
2022/08/21 05:18:29;;;;;;;;;;;;;;;;;;5067133;28;19928;-87
2022/08/21 05:20:56;;;;;;;;;;;;;;;;;;5068031;28;19925;-86
2022/08/21 05:23:24;;;;;;;;;;;;;;;;;;5069512;28;19939;-86
2022/08/21 05:25:51;;;;;;;;;;;;;;;;;;5053594;28;19928;-87
2022/08/21 05:28:19;;;;;;;;;;;;;;;;;;5069726;28;20015;-87
2022/08/21 05:30:46;;;;;;;;;;;;;;;;;;5067609;28;19928;-88
2022/08/21 05:33:13;;;;;;;;;;;;;;;;;;5056703;28;19931;-86
2022/08/21 05:35:40;;;;;;;;;;;;;;;;;;5067821;28;19935;-87
2022/08/21 05:38:07;;;;;;;;;;;;;;;;;;5069143;28;19956;-86
2022/08/21 05:40:43;;;;;;;;;;;;;;;;;;5068510;28;20304;-87
2022/08/21 05:43:10;;;;;;;;;;;;;;;;;;5056827;28;20303;-86
2022/08/21 05:45:37;;;;;;;;;;;;;;;;;;5068512;28;19947;-86
2022/08/21 05:48:09;;;;;;;;;;;;;;;;;;5049454;28;19929;-87
2022/08/21 05:50:37;;;;;;;;;;;;;;;;;;5050388;28;19967;-86
2022/08/21 05:53:05;;;;;;;;;;;;;;;;;;5037107;28;19955;-86
2022/08/21 05:55:33;;;;;;;;;;;;;;;;;;5034475;28;20370;-87
2022/08/21 05:58:00;;;;;;;;;;;;;;;;;;5031915;28;20011;-87
2022/08/21 06:00:28;;;;;;;;;;;;;;;;;;5061183;28;20303;-87
2022/08/21 06:02:55;;;;;;;;;;;;;;;;;;5050339;28;20020;-86
2022/08/21 06:05:22;;;;;;;;;;;;;;;;;;5077026;22;19924;-69
2022/08/21 06:08:02;;;;;;;;;;;;;;;;;;5012378;28;19929;-69
2022/08/21 06:10:29;;;;;;;;;;;;;;;;;;5012407;28;19929;-69
2022/08/21 06:12:57;;;;;;;;;;;;;;;;;;5009746;28;19929;-69
2022/08/21 06:15:24;;;;;;;;;;;;;;;;;;5002936;28;19976;-69
2022/08/21 06:17:51;;;;;;;;;;;;;;;;;;5004422;28;20033;-69
2022/08/21 06:20:19;;;;;;;;;;;;;;;;;;5003436;28;19929;-69
2022/08/21 06:22:46;;;;;;;;;;;;;;;;;;5002999;28;20479;-69
2022/08/21 06:25:13;;;;;;;;;;;;;;;;;;5004246;28;19932;-68
2022/08/21 06:27:40;;;;;;;;;;;;;;;;;;5001757;28;20368;-68
2022/08/21 06:30:08;;;;;;;;;;;;;;;;;;4995757;28;19930;-68
2022/08/21 06:32:35;;;;;;;;;;;;;;;;;;5003878;28;20024;-68
2022/08/21 06:35:02;;;;;;;;;;;;;;;;;;5002956;28;19937;-68
2022/08/21 06:37:30;;;;;;;;;;;;;;;;;;5000872;28;20020;-69
2022/08/21 06:39:57;;;;;;;;;;;;;;;;;;5000867;28;19937;-69
2022/08/21 06:42:26;;;;;;;;;;;;;;;;;;5003705;28;19936;-69
2022/08/21 06:44:54;;;;;;;;;;;;;;;;;;4975213;28;19930;-69
2022/08/21 06:47:21;;;;;;;;;;;;;;;;;;4992253;28;19937;-69
2022/08/21 06:49:49;;;;;;;;;;;;;;;;;;5002027;28;20258;-68
2022/08/21 06:52:16;;;;;;;;;;;;;;;;;;5002910;28;19925;-68
2022/08/21 06:54:43;;;;;;;;;;;;;;;;;;5005653;28;19956;-69
2022/08/21 06:57:11;;;;;;;;;;;;;;;;;;5021567;28;19926;-69
2022/08/21 06:59:38;;;;;;;;;;;;;;;;;;5022044;28;19957;-69
2022/08/21 07:02:05;;;;;;;;;;;;;;;;;;5018851;28;20146;-69
2022/08/21 07:04:32;;;;;;;;;;;;;;;;;;5020375;28;20298;-69
2022/08/21 07:07:00;;;;;;;;;;;;;;;;;;5016217;28;19929;-68
2022/08/21 07:09:27;;;;;;;;;;;;;;;;;;5010312;28;19976;-69
2022/08/21 07:11:54;;;;;;;;;;;;;;;;;;5008487;28;19930;-68
2022/08/21 07:14:21;;;;;;;;;;;;;;;;;;5009786;28;19925;-70
2022/08/21 07:16:49;;;;;;;;;;;;;;;;;;5014152;28;19935;-69
2022/08/21 07:19:16;;;;;;;;;;;;;;;;;;5000079;28;19937;-70
2022/08/21 07:21:43;;;;;;;;;;;;;;;;;;5004631;28;19929;-69
2022/08/21 07:24:10;;;;;;;;;;;;;;;;;;4994452;28;20016;-68
2022/08/21 07:26:38;;;;;;;;;;;;;;;;;;4999092;28;20516;-69
2022/08/21 07:29:05;;;;;;;;;;;;;;;;;;4996802;28;20020;-69
2022/08/21 07:31:32;;;;;;;;;;;;;;;;;;5005846;28;19930;-69
2022/08/21 07:33:59;;;;;;;;;;;;;;;;;;5001999;28;19996;-69
2022/08/21 07:36:27;;;;;;;;;;;;;;;;;;5000260;28;19944;-69
2022/08/21 07:38:54;;;;;;;;;;;;;;;;;;5000954;28;20467;-70
2022/08/21 07:41:21;;;;;;;;;;;;;;;;;;4998269;28;19960;-69
2022/08/21 07:43:48;;;;;;;;;;;;;;;;;;5001874;28;19930;-69
2022/08/21 07:46:19;;;;;;;;;;;;;;;;;;4998320;28;19929;-69
2022/08/21 07:48:46;;;;;;;;;;;;;;;;;;5031953;22;19929;-74
2022/08/21 07:51:13;;;;;;;;;;;;;;;;;;5012096;28;19987;-72
2022/08/21 07:53:41;;;;;;;;;;;;;;;;;;5013849;28;19988;-74
2022/08/21 07:56:08;;;;;;;;;;;;;;;;;;5037115;28;19993;-71
2022/08/21 07:58:35;;;;;;;;;;;;;;;;;;5037529;28;19925;-72
2022/08/21 08:01:03;;;;;;;;;;;;;;;;;;5018466;28;19929;-74
2022/08/21 08:03:30;;;;;;;;;;;;;;;;;;4994205;28;19940;-74
2022/08/21 08:05:58;;;;;;;;;;;;;;;;;;5011390;28;19932;-73
2022/08/21 08:08:25;;;;;;;;;;;;;;;;;;5011552;28;19929;-73
2022/08/21 08:10:52;;;;;;;;;;;;;;;;;;5010866;28;20035;-73
2022/08/21 08:13:21;;;;;;;;;;;;;;;;;;5025046;28;20032;-75
2022/08/21 08:15:48;;;;;;;;;;;;;;;;;;5029649;28;19960;-73
2022/08/21 08:18:15;;;;;;;;;;;;;;;;;;5026505;28;19936;-74
2022/08/21 08:20:43;;;;;;;;;;;;;;;;;;5027692;28;19999;-73
2022/08/21 08:23:10;;;;;;;;;;;;;;;;;;5028533;28;20027;-74
2022/08/21 08:25:37;;;;;;;;;;;;;;;;;;5026903;28;19996;-73
2022/08/21 08:28:04;;;;;;;;;;;;;;;;;;5028002;28;20721;-74
2022/08/21 08:30:43;;;;;;;;;;;;;;;;;;5022232;28;19996;-74
2022/08/21 08:33:10;;;;;;;;;;;;;;;;;;5029250;28;19929;-74
2022/08/21 08:35:38;;;;;;;;;;;;;;;;;;5008518;28;19952;-72
2022/08/21 08:38:05;;;;;;;;;;;;;;;;;;5029200;28;20798;-75
2022/08/21 08:40:33;;;;;;;;;;;;;;;;;;5019509;28;19933;-74
2022/08/21 08:43:01;;;;;;;;;;;;;;;;;;5021395;28;19933;-75
2022/08/21 08:45:28;;;;;;;;;;;;;;;;;;5020606;28;19929;-73
2022/08/21 08:47:57;;;;;;;;;;;;;;;;;;5000415;28;22186;-72
2022/08/21 08:50:25;;;;;;;;;;;;;;;;;;5000667;28;19925;-74
2022/08/21 08:52:52;;;;;;;;;;;;;;;;;;5030421;28;20328;-74
2022/08/21 08:55:20;;;;;;;;;;;;;;;;;;5030695;28;19983;-74
2022/08/21 08:57:51;;;;;;;;;;;;;;;;;;5012352;28;19925;-73
2022/08/21 09:00:19;;;;;;;;;;;;;;;;;;5007902;28;19937;-75
2022/08/21 09:02:46;;;;;;;;;;;;;;;;;;5029937;28;20023;-77
2022/08/21 09:05:13;;;;;;;;;;;;;;;;;;5027035;28;19929;-74
2022/08/21 09:07:40;;;;;;;;;;;;;;;;;;5022131;28;20048;-76
2022/08/21 09:10:09;;;;;;;;;;;;;;;;;;5010847;28;19925;-72
2022/08/21 09:12:36;;;;;;;;;;;;;;;;;;5032039;28;19929;-75
2022/08/21 09:15:03;;;;;;;;;;;;;;;;;;5030277;28;20389;-77
2022/08/21 09:17:31;;;;;;;;;;;;;;;;;;5031146;28;19971;-77
2022/08/21 09:19:58;;;;;;;;;;;;;;;;;;5016490;28;19925;-74
2022/08/21 09:22:25;;;;;;;;;;;;;;;;;;5032571;28;20387;-75
2022/08/21 09:24:52;;;;;;;;;;;;;;;;;;5035409;28;19935;-74
2022/08/21 09:27:21;;;;;;;;;;;;;;;;;;5025031;28;19960;-74
2022/08/21 09:29:50;;;;;;;;;;;;;;;;;;5015196;28;19960;-74
2022/08/21 09:32:18;;;;;;;;;;;;;;;;;;5034044;28;19968;-75
2022/08/21 09:34:45;;;;;;;;;;;;;;;;;;5032680;28;19952;-77
2022/08/21 09:37:13;;;;;;;;;;;;;;;;;;5013742;28;19925;-76
2022/08/21 09:39:40;;;;;;;;;;;;;;;;;;5033772;28;19935;-74
2022/08/21 09:42:11;;;;;;;;;;;;;;;;;;5034967;28;19929;-74
2022/08/21 09:44:40;;;;;;;;;;;;;;;;;;5035048;28;19955;-77
2022/08/21 09:47:08;;;;;;;;;;;;;;;;;;5014086;28;19968;-74
2022/08/21 09:49:37;;;;;;;;;;;;;;;;;;5032558;28;19932;-76
2022/08/21 09:52:05;;;;;;;;;;;;;;;;;;5035343;28;20004;-75
2022/08/21 09:54:33;;;;;;;;;;;;;;;;;;5016764;28;19933;-76
2022/08/21 09:59:46;;;;;;;;;;;;;;;;;;5030473;28;19940;-74
2022/08/21 10:02:14;;;;;;;;;;;;;;;;;;5034120;28;19925;-74
2022/08/21 10:04:45;;;;;;;;;;;;;;;;;;5013078;28;20389;-74
2022/08/21 10:07:13;;;;;;;;;;;;;;;;;;5032957;28;19932;-75
2022/08/21 10:09:41;;;;;;;;;;;;;;;;;;5010453;28;19929;-73
2022/08/21 10:12:08;;;;;;;;;;;;;;;;;;5031169;28;19960;-75
2022/08/21 10:14:37;;;;;;;;;;;;;;;;;;5013661;28;20442;-74
2022/08/21 10:17:06;;;;;;;;;;;;;;;;;;5032185;28;19933;-74
2022/08/21 10:19:33;;;;;;;;;;;;;;;;;;5035643;28;20652;-73
2022/08/21 10:22:01;;;;;;;;;;;;;;;;;;5036476;28;19952;-74
2022/08/21 10:24:28;;;;;;;;;;;;;;;;;;5029891;28;19992;-73
2022/08/21 10:26:57;;;;;;;;;;;;;;;;;;5030405;28;19936;-74
2022/08/21 10:29:25;;;;;;;;;;;;;;;;;;5005851;28;19925;-74
2022/08/21 10:31:52;;;;;;;;;;;;;;;;;;5019619;28;20490;-72
2022/08/21 10:34:19;;;;;;;;;;;;;;;;;;5028996;28;19929;-74
2022/08/21 10:36:47;;;;;;;;;;;;;;;;;;5025405;28;19933;-75
2022/08/21 10:39:14;;;;;;;;;;;;;;;;;;5020501;28;20036;-75
2022/08/21 10:41:53;;;;;;;;;;;;;;;;;;5007970;28;19955;-72
2022/08/21 10:44:22;;;;;;;;;;;;;;;;;;5025955;28;19929;-75
2022/08/21 10:46:49;;;;;;;;;;;;;;;;;;5025485;28;19929;-75
2022/08/21 10:49:17;;;;;;;;;;;;;;;;;;5005754;28;19962;-74
2022/08/21 10:51:44;;;;;;;;;;;;;;;;;;5026981;28;19929;-73
2022/08/21 10:54:11;;;;;;;;;;;;;;;;;;5006938;28;19929;-74
2022/08/21 10:56:38;;;;;;;;;;;;;;;;;;5029550;28;20027;-75
2022/08/21 10:59:06;;;;;;;;;;;;;;;;;;5027339;28;20036;-74
2022/08/21 11:01:33;;;;;;;;;;;;;;;;;;5030127;28;19964;-72
2022/08/21 11:04:00;;;;;;;;;;;;;;;;;;5030710;28;20549;-71
2022/08/21 11:06:27;;;;;;;;;;;;;;;;;;5029560;28;20586;-74
2022/08/21 11:08:56;;;;;;;;;;;;;;;;;;5026887;28;19929;-73
2022/08/21 11:11:23;;;;;;;;;;;;;;;;;;4995072;28;19929;-73
2022/08/21 11:13:51;;;;;;;;;;;;;;;;;;5026893;28;20002;-74
2022/08/21 11:16:18;;;;;;;;;;;;;;;;;;5001910;28;19929;-73
2022/08/21 11:18:45;;;;;;;;;;;;;;;;;;5029705;28;19952;-74
2022/08/21 11:21:12;;;;;;;;;;;;;;;;;;5011749;28;19975;-74
2022/08/21 11:23:40;;;;;;;;;;;;;;;;;;5028017;28;19929;-72
2022/08/21 11:26:07;;;;;;;;;;;;;;;;;;5027809;28;19952;-73
2022/08/21 11:28:34;;;;;;;;;;;;;;;;;;5030744;28;19988;-71
2022/08/21 11:31:01;;;;;;;;;;;;;;;;;;5028507;28;20017;-73
2022/08/21 11:33:29;;;;;;;;;;;;;;;;;;5010682;28;20288;-73
2022/08/21 11:35:57;;;;;;;;;;;;;;;;;;5027237;28;19925;-73
2022/08/21 11:38:24;;;;;;;;;;;;;;;;;;5029084;28;20650;-74
2022/08/21 11:40:51;;;;;;;;;;;;;;;;;;5009802;28;19933;-72
2022/08/21 11:43:18;;;;;;;;;;;;;;;;;;5008145;28;20439;-74
2022/08/21 11:45:45;;;;;;;;;;;;;;;;;;5010728;28;20446;-74
2022/08/21 11:48:13;;;;;;;;;;;;;;;;;;4997260;28;19935;-72
2022/08/21 11:50:40;;;;;;;;;;;;;;;;;;5027978;28;19925;-72
2022/08/21 11:53:07;;;;;;;;;;;;;;;;;;5031454;28;20324;-72
2022/08/21 11:55:35;;;;;;;;;;;;;;;;;;5029714;28;19940;-73
2022/08/21 11:58:02;;;;;;;;;;;;;;;;;;5028996;28;19935;-73
2022/08/21 12:00:29;;;;;;;;;;;;;;;;;;5030377;28;20524;-76
2022/08/21 12:02:56;;;;;;;;;;;;;;;;;;5030548;28;19935;-74
2022/08/21 12:05:24;;;;;;;;;;;;;;;;;;5011929;28;19932;-74
2022/08/21 12:07:51;;;;;;;;;;;;;;;;;;5033363;28;19931;-78
2022/08/21 12:10:22;;;;;;;;;;;;;;;;;;5025238;28;19983;-81
2022/08/21 12:12:49;;;;;;;;;;;;;;;;;;5008503;28;19929;-77
2022/08/21 12:15:17;;;;;;;;;;;;;;;;;;5010067;28;20400;-78
2022/08/21 12:17:44;;;;;;;;;;;;;;;;;;5012537;28;19925;-74
2022/08/21 12:20:11;;;;;;;;;;;;;;;;;;5027926;28;19936;-75
2022/08/21 12:22:38;;;;;;;;;;;;;;;;;;5004880;28;19925;-75
2022/08/21 12:25:06;;;;;;;;;;;;;;;;;;5011380;28;19933;-74
2022/08/21 12:27:33;;;;;;;;;;;;;;;;;;5008317;28;19932;-76
2022/08/21 12:30:01;;;;;;;;;;;;;;;;;;5028612;28;19937;-77
2022/08/21 12:32:28;;;;;;;;;;;;;;;;;;5001974;28;19929;-76
2022/08/21 12:34:55;;;;;;;;;;;;;;;;;;5024816;28;19933;-77
2022/08/21 12:37:23;;;;;;;;;;;;;;;;;;5029959;28;19968;-78
2022/08/21 12:39:50;;;;;;;;;;;;;;;;;;5026341;28;20065;-75
2022/08/21 12:42:17;;;;;;;;;;;;;;;;;;5010966;28;19933;-75
2022/08/21 12:44:44;;;;;;;;;;;;;;;;;;4997136;28;19929;-75
2022/08/21 12:47:12;;;;;;;;;;;;;;;;;;5011598;28;20339;-76
2022/08/21 12:49:39;;;;;;;;;;;;;;;;;;4997334;28;19956;-76
2022/08/21 12:52:06;;;;;;;;;;;;;;;;;;5010272;28;19929;-74
2022/08/21 12:54:34;;;;;;;;;;;;;;;;;;5029061;28;19929;-76
2022/08/21 12:57:01;;;;;;;;;;;;;;;;;;5011155;28;20312;-75
2022/08/21 12:59:28;;;;;;;;;;;;;;;;;;5013122;28;20028;-77
2022/08/21 13:01:56;;;;;;;;;;;;;;;;;;4982954;28;20071;-77
2022/08/21 13:04:23;;;;;;;;;;;;;;;;;;5034233;28;20007;-76
2022/08/21 13:06:51;;;;;;;;;;;;;;;;;;4997476;28;20497;-76
2022/08/21 13:09:18;;;;;;;;;;;;;;;;;;5030387;28;19933;-76
2022/08/21 13:11:49;;;;;;;;;;;;;;;;;;5017238;28;20616;-75
2022/08/21 13:14:16;;;;;;;;;;;;;;;;;;5033461;28;19972;-76
2022/08/21 13:16:43;;;;;;;;;;;;;;;;;;5032655;28;19925;-76
2022/08/21 13:19:11;;;;;;;;;;;;;;;;;;5037644;28;19913;-75
2022/08/21 13:21:38;;;;;;;;;;;;;;;;;;5024152;28;19929;-77
2022/08/21 13:24:05;;;;;;;;;;;;;;;;;;5031508;28;19933;-76
2022/08/21 13:26:51;;;;;;;;;;;;;;;;;;5030184;28;19935;-77
2022/08/21 13:29:19;;;;;;;;;;;;;;;;;;5011991;28;19929;-77
2022/08/21 13:31:46;;;;;;;;;;;;;;;;;;5011439;28;19951;-76
2022/08/21 13:34:14;;;;;;;;;;;;;;;;;;5030206;28;20288;-75
2022/08/21 13:36:41;;;;;;;;;;;;;;;;;;4996969;28;19929;-75
2022/08/21 13:39:08;;;;;;;;;;;;;;;;;;5030385;28;19933;-76
2022/08/21 13:41:36;;;;;;;;;;;;;;;;;;5029618;28;19951;-76
2022/08/21 13:44:03;;;;;;;;;;;;;;;;;;4997990;28;19968;-76
2022/08/21 13:46:31;;;;;;;;;;;;;;;;;;5031731;28;19971;-75
2022/08/21 13:48:58;;;;;;;;;;;;;;;;;;5031557;28;19925;-75
2022/08/21 13:51:25;;;;;;;;;;;;;;;;;;5029904;28;19925;-73
2022/08/21 13:53:54;;;;;;;;;;;;;;;;;;5010914;28;19976;-75
2022/08/21 13:56:21;;;;;;;;;;;;;;;;;;5012281;28;19925;-75
2022/08/21 13:58:51;;;;;;;;;;;;;;;;;;5012629;28;19929;-75
2022/08/21 14:01:18;;;;;;;;;;;;;;;;;;5030976;28;20039;-75
2022/08/21 14:03:46;;;;;;;;;;;;;;;;;;5028148;28;19925;-76
2022/08/21 14:06:13;;;;;;;;;;;;;;;;;;5029550;28;19929;-75
2022/08/21 14:08:43;;;;;;;;;;;;;;;;;;5009518;28;19996;-76
2022/08/21 14:11:11;;;;;;;;;;;;;;;;;;5030110;28;19987;-75
2022/08/21 14:13:38;;;;;;;;;;;;;;;;;;5012012;28;20312;-75
2022/08/21 14:16:05;;;;;;;;;;;;;;;;;;5028494;28;20090;-75
2022/08/21 14:18:33;;;;;;;;;;;;;;;;;;5027858;28;19925;-77
2022/08/21 14:21:00;;;;;;;;;;;;;;;;;;5012906;28;19972;-74
2022/08/21 14:23:27;;;;;;;;;;;;;;;;;;5011562;28;19968;-75
2022/08/21 14:25:55;;;;;;;;;;;;;;;;;;5027337;28;19979;-75
2022/08/21 14:28:22;;;;;;;;;;;;;;;;;;5012543;28;20016;-75
2022/08/21 14:30:49;;;;;;;;;;;;;;;;;;5011831;28;19936;-76
2022/08/21 14:33:17;;;;;;;;;;;;;;;;;;5030640;28;19926;-76
2022/08/21 14:35:44;;;;;;;;;;;;;;;;;;5031582;28;20045;-75
2022/08/21 14:38:12;;;;;;;;;;;;;;;;;;5027667;28;19975;-75
2022/08/21 14:40:39;;;;;;;;;;;;;;;;;;5031888;28;19929;-76
2022/08/21 14:43:08;;;;;;;;;;;;;;;;;;5015496;28;19935;-75
2022/08/21 14:45:36;;;;;;;;;;;;;;;;;;5014602;28;20412;-75
2022/08/21 14:48:04;;;;;;;;;;;;;;;;;;5023400;28;19992;-75
2022/08/21 14:50:32;;;;;;;;;;;;;;;;;;5041743;28;20055;-75
2022/08/21 14:52:59;;;;;;;;;;;;;;;;;;5032368;28;19941;-75
2022/08/21 14:55:26;;;;;;;;;;;;;;;;;;5034829;28;20110;-76
2022/08/21 14:57:54;;;;;;;;;;;;;;;;;;5002040;28;19953;-75
2022/08/21 15:00:22;;;;;;;;;;;;;;;;;;5017092;28;19940;-75
2022/08/21 15:02:50;;;;;;;;;;;;;;;;;;5017288;28;19935;-75
2022/08/21 15:05:17;;;;;;;;;;;;;;;;;;5032815;28;19979;-75
2022/08/21 15:07:57;;;;;;;;;;;;;;;;;;5033451;28;19944;-75
2022/08/21 15:10:25;;;;;;;;;;;;;;;;;;5015534;28;20602;-76
2022/08/21 15:12:52;;;;;;;;;;;;;;;;;;5034739;28;19929;-74
2022/08/21 15:15:19;;;;;;;;;;;;;;;;;;5033526;28;20060;-75
2022/08/21 15:17:46;;;;;;;;;;;;;;;;;;5033306;28;19957;-75
2022/08/21 15:20:14;;;;;;;;;;;;;;;;;;5030801;28;20307;-74
2022/08/21 15:22:42;;;;;;;;;;;;;;;;;;5011906;28;19929;-74
2022/08/21 15:25:14;;;;;;;;;;;;;;;;;;5041071;28;19932;-75
2022/08/21 15:27:51;;;;;;;;;;;;;;;;;;5019502;28;19952;-75
2022/08/21 15:30:24;;;;;;;;;;;;;;;;;;5014585;28;19979;-74
2022/08/21 15:32:57;;;;;;;;;;;;;;;;;;5032497;28;19956;-75
2022/08/21 15:35:27;;;;;;;;;;;;;;;;;;5022398;28;19925;-76
2022/08/21 15:37:59;;;;;;;;;;;;;;;;;;5018615;28;20001;-76
2022/08/21 15:40:26;;;;;;;;;;;;;;;;;;5016706;28;19929;-75
2022/08/21 15:42:54;;;;;;;;;;;;;;;;;;5034229;28;19936;-76
2022/08/21 15:45:21;;;;;;;;;;;;;;;;;;5029306;28;19936;-76
2022/08/21 15:47:49;;;;;;;;;;;;;;;;;;4998897;28;19933;-75
2022/08/21 15:50:16;;;;;;;;;;;;;;;;;;4999551;28;19932;-76
2022/08/21 15:52:44;;;;;;;;;;;;;;;;;;5015442;28;20024;-75
2022/08/21 15:55:11;;;;;;;;;;;;;;;;;;5032105;28;19983;-75
2022/08/21 15:57:38;;;;;;;;;;;;;;;;;;5032097;28;19936;-75
2022/08/21 16:00:12;;;;;;;;;;;;;;;;;;4996478;28;20000;-81
2022/08/21 16:02:39;;;;;;;;;;;;;;;;;;4996452;28;19941;-77
2022/08/21 16:05:07;;;;;;;;;;;;;;;;;;5030739;28;19975;-75
2022/08/21 16:07:34;;;;;;;;;;;;;;;;;;5011131;28;19929;-79
2022/08/21 16:10:03;;;;;;;;;;;;;;;;;;5032212;28;19936;-76
2022/08/21 16:12:30;;;;;;;;;;;;;;;;;;5015302;28;19933;-76
2022/08/21 16:14:58;;;;;;;;;;;;;;;;;;5016634;28;19929;-76
2022/08/21 16:17:25;;;;;;;;;;;;;;;;;;5024874;28;19940;-77
2022/08/21 16:19:52;;;;;;;;;;;;;;;;;;5033795;28;19969;-75
2022/08/21 16:22:20;;;;;;;;;;;;;;;;;;5033598;28;20379;-76
2022/08/21 16:24:47;;;;;;;;;;;;;;;;;;5035792;28;19925;-76
2022/08/21 16:27:16;;;;;;;;;;;;;;;;;;5030117;28;19929;-75
2022/08/21 16:29:43;;;;;;;;;;;;;;;;;;5030410;28;19925;-76
2022/08/21 16:32:10;;;;;;;;;;;;;;;;;;5028891;28;19929;-75
2022/08/21 16:34:38;;;;;;;;;;;;;;;;;;5016063;28;20008;-76
2022/08/21 16:37:05;;;;;;;;;;;;;;;;;;5031550;28;19929;-76
2022/08/21 16:39:32;;;;;;;;;;;;;;;;;;5013701;28;20048;-75
2022/08/21 16:42:00;;;;;;;;;;;;;;;;;;5015373;28;20005;-76
2022/08/21 16:44:27;;;;;;;;;;;;;;;;;;5015448;28;19929;-76
2022/08/21 16:46:56;;;;;;;;;;;;;;;;;;5033032;28;19929;-76
2022/08/21 16:49:23;;;;;;;;;;;;;;;;;;5030295;28;19941;-76
2022/08/21 16:51:50;;;;;;;;;;;;;;;;;;5033410;28;20610;-75
2022/08/21 16:54:18;;;;;;;;;;;;;;;;;;5033347;28;20684;-75